VOPC

Pondicherry Airport

India
METAR VOPC 190330Z 01002KT 5000 HZ SCT020 28/24 Q1015 NOSIG
Observed Flight Rules
Nov-19 @ 03:30 UTC (24 minutes ago) Marginal Visual Flight Rules
Wind Visibility Clouds Conditions
10° at 2 knots 5,005 meters
  • Scattered at 2,000' AGL
  • Haze
Temperatures Readings
Current 28°C / 82°F
Dewpoint 24°C / 75°F
Humidity 79%
Altimeter 29.97" Hg
Pressure 1015 hPa
Elevation 36
METAR VOPC 190330Z 01002KT 5000 HZ SCT020 28/24 Q1015 NOSIG
Observed Flight Rules
Nov-19 @ 03:30 UTC
(24 minutes ago)
MVFR
Wind Visibility
10° at 2 knots 5,005 meters
Clouds
  • Scattered at 2,000' AGL
Conditions
  • Haze
Temperature Dewpoint
28°C / 82°F 24°C / 75°F
Humidity Altimeter Pressure
79% 29.97" Hg 1015 hPa